Terminal Aerodrome Forecast
Issued by NWS

Home | Current Version | Previous Version | Text Only | Print | Product List | Glossary On
Versions: 1 2 3 4 5 6 7 8 9 10 11 12 13
000
FTUS44 KLIX 231123
TAFHUM
TAF
KHUM 231123Z 2312/2412 18015KT P6SM VCSH BKN015 BKN025
     FM231600 18015KT P6SM VCTS BKN040CB
     FM240100 18007KT P6SM BKN070
     FM240900 18004KT P6SM BKN030=

USA.gov is the U.S. government's official web portal to all federal, state and local government web resources and services.